sensor_id;sensor_type;location;lat;lon;timestamp;temperature;humidity
4699;DHT22;33708;49.466;11.176;2023-11-19T00:01:08;5.00;99.90
4699;DHT22;33708;49.466;11.176;2023-11-19T00:03:34;5.00;99.90
4699;DHT22;33708;49.466;11.176;2023-11-19T00:06:01;5.10;99.90
4699;DHT22;33708;49.466;11.176;2023-11-19T00:08:26;5.10;99.90
4699;DHT22;33708;49.466;11.176;2023-11-19T00:10:52;5.00;99.90
4699;DHT22;33708;49.466;11.176;2023-11-19T00:13:18;5.00;99.90
4699;DHT22;33708;49.466;11.176;2023-11-19T00:15:43;5.20;99.90
4699;DHT22;33708;49.466;11.176;2023-11-19T00:18:10;5.30;99.90
4699;DHT22;33708;49.466;11.176;2023-11-19T00:20:36;5.20;99.90
4699;DHT22;33708;49.466;11.176;2023-11-19T00:23:02;5.30;99.90
4699;DHT22;33708;49.466;11.176;2023-11-19T00:25:28;5.40;99.90
4699;DHT22;33708;49.466;11.176;2023-11-19T00:27:53;5.40;99.90
4699;DHT22;33708;49.466;11.176;2023-11-19T00:30:19;5.40;99.90
4699;DHT22;33708;49.466;11.176;2023-11-19T00:32:45;5.50;99.90
4699;DHT22;33708;49.466;11.176;2023-11-19T00:35:11;5.70;99.90
4699;DHT22;33708;49.466;11.176;2023-11-19T00:37:36;5.50;99.90
4699;DHT22;33708;49.466;11.176;2023-11-19T00:40:02;5.60;99.90
4699;DHT22;33708;49.466;11.176;2023-11-19T00:42:30;5.70;99.90
4699;DHT22;33708;49.466;11.176;2023-11-19T00:44:56;5.80;99.90
4699;DHT22;33708;49.466;11.176;2023-11-19T00:47:22;5.90;99.90
4699;DHT22;33708;49.466;11.176;2023-11-19T00:49:48;5.90;99.90
4699;DHT22;33708;49.466;11.176;2023-11-19T00:52:17;5.90;99.90
4699;DHT22;33708;49.466;11.176;2023-11-19T00:54:43;6.00;99.90
4699;DHT22;33708;49.466;11.176;2023-11-19T00:57:09;6.00;99.90
4699;DHT22;33708;49.466;11.176;2023-11-19T00:59:34;5.90;99.90
4699;DHT22;33708;49.466;11.176;2023-11-19T01:02:00;5.90;99.90
4699;DHT22;33708;49.466;11.176;2023-11-19T01:04:33;5.90;99.90
4699;DHT22;33708;49.466;11.176;2023-11-19T01:06:59;5.70;99.90
4699;DHT22;33708;49.466;11.176;2023-11-19T01:09:25;5.70;99.90
4699;DHT22;33708;49.466;11.176;2023-11-19T01:11:52;5.90;99.90
4699;DHT22;33708;49.466;11.176;2023-11-19T01:14:18;5.90;99.90
4699;DHT22;33708;49.466;11.176;2023-11-19T01:16:44;6.00;99.90
4699;DHT22;33708;49.466;11.176;2023-11-19T01:19:09;6.10;99.90
4699;DHT22;33708;49.466;11.176;2023-11-19T01:21:36;6.10;99.90
4699;DHT22;33708;49.466;11.176;2023-11-19T01:24:01;6.10;99.90
4699;DHT22;33708;49.466;11.176;2023-11-19T01:26:29;6.20;99.90
4699;DHT22;33708;49.466;11.176;2023-11-19T01:28:54;6.40;99.90
4699;DHT22;33708;49.466;11.176;2023-11-19T01:31:20;6.30;99.90
4699;DHT22;33708;49.466;11.176;2023-11-19T01:33:46;6.40;99.90
4699;DHT22;33708;49.466;11.176;2023-11-19T01:36:14;6.30;99.90
4699;DHT22;33708;49.466;11.176;2023-11-19T01:38:40;6.30;99.90
4699;DHT22;33708;49.466;11.176;2023-11-19T01:41:06;6.40;99.90
4699;DHT22;33708;49.466;11.176;2023-11-19T01:43:39;6.50;99.90
4699;DHT22;33708;49.466;11.176;2023-11-19T01:46:09;6.60;99.90
4699;DHT22;33708;49.466;11.176;2023-11-19T01:48:38;6.40;99.90
4699;DHT22;33708;49.466;11.176;2023-11-19T01:51:07;6.50;99.90
4699;DHT22;33708;49.466;11.176;2023-11-19T01:53:35;6.60;99.90
4699;DHT22;33708;49.466;11.176;2023-11-19T01:56:07;6.70;99.90
4699;DHT22;33708;49.466;11.176;2023-11-19T01:58:36;6.50;99.90
4699;DHT22;33708;49.466;11.176;2023-11-19T02:01:02;6.30;99.90
4699;DHT22;33708;49.466;11.176;2023-11-19T02:03:31;6.20;99.90
4699;DHT22;33708;49.466;11.176;2023-11-19T02:05:59;6.30;99.90
4699;DHT22;33708;49.466;11.176;2023-11-19T02:08:24;6.30;99.90
4699;DHT22;33708;49.466;11.176;2023-11-19T02:10:51;6.30;99.90
4699;DHT22;33708;49.466;11.176;2023-11-19T02:13:18;6.10;99.90
4699;DHT22;33708;49.466;11.176;2023-11-19T02:15:44;6.20;99.90
4699;DHT22;33708;49.466;11.176;2023-11-19T02:18:20;6.30;99.90
4699;DHT22;33708;49.466;11.176;2023-11-19T02:20:47;6.20;99.90
4699;DHT22;33708;49.466;11.176;2023-11-19T02:23:13;6.30;99.90
4699;DHT22;33708;49.466;11.176;2023-11-19T02:25:40;6.10;99.90
4699;DHT22;33708;49.466;11.176;2023-11-19T02:28:06;6.30;99.90
4699;DHT22;33708;49.466;11.176;2023-11-19T02:30:32;6.20;99.90
4699;DHT22;33708;49.466;11.176;2023-11-19T02:33:01;6.30;99.90
4699;DHT22;33708;49.466;11.176;2023-11-19T02:35:32;6.40;99.90
4699;DHT22;33708;49.466;11.176;2023-11-19T02:37:59;6.60;99.90
4699;DHT22;33708;49.466;11.176;2023-11-19T02:40:26;6.60;99.90
4699;DHT22;33708;49.466;11.176;2023-11-19T02:42:55;6.00;99.90
4699;DHT22;33708;49.466;11.176;2023-11-19T02:45:22;6.60;99.90
4699;DHT22;33708;49.466;11.176;2023-11-19T02:47:48;6.70;99.90
4699;DHT22;33708;49.466;11.176;2023-11-19T02:50:14;6.60;99.90
4699;DHT22;33708;49.466;11.176;2023-11-19T02:52:44;6.40;99.90
4699;DHT22;33708;49.466;11.176;2023-11-19T02:55:11;6.40;99.90
4699;DHT22;33708;49.466;11.176;2023-11-19T02:57:40;6.40;99.90
4699;DHT22;33708;49.466;11.176;2023-11-19T03:00:15;6.50;99.90
4699;DHT22;33708;49.466;11.176;2023-11-19T03:02:41;6.60;99.90
4699;DHT22;33708;49.466;11.176;2023-11-19T03:05:13;6.50;99.90
4699;DHT22;33708;49.466;11.176;2023-11-19T03:07:41;6.60;99.90
4699;DHT22;33708;49.466;11.176;2023-11-19T03:10:08;6.60;99.90
4699;DHT22;33708;49.466;11.176;2023-11-19T03:12:34;6.60;99.90
4699;DHT22;33708;49.466;11.176;2023-11-19T03:15:00;6.60;99.90
4699;DHT22;33708;49.466;11.176;2023-11-19T03:17:26;6.40;99.90
4699;DHT22;33708;49.466;11.176;2023-11-19T03:19:52;6.60;99.90
4699;DHT22;33708;49.466;11.176;2023-11-19T03:22:17;6.80;99.90
4699;DHT22;33708;49.466;11.176;2023-11-19T03:24:43;6.90;99.90
4699;DHT22;33708;49.466;11.176;2023-11-19T03:27:10;7.00;99.90
4699;DHT22;33708;49.466;11.176;2023-11-19T03:29:36;6.90;99.90
4699;DHT22;33708;49.466;11.176;2023-11-19T03:32:02;6.90;99.90
4699;DHT22;33708;49.466;11.176;2023-11-19T03:34:27;6.90;99.90
4699;DHT22;33708;49.466;11.176;2023-11-19T03:36:53;6.90;99.90
4699;DHT22;33708;49.466;11.176;2023-11-19T03:39:19;7.00;99.90
4699;DHT22;33708;49.466;11.176;2023-11-19T03:41:47;6.90;99.90
4699;DHT22;33708;49.466;11.176;2023-11-19T03:44:13;7.10;99.90
4699;DHT22;33708;49.466;11.176;2023-11-19T03:46:38;6.90;99.90
4699;DHT22;33708;49.466;11.176;2023-11-19T03:49:04;6.90;99.90
4699;DHT22;33708;49.466;11.176;2023-11-19T03:51:32;6.90;99.90
4699;DHT22;33708;49.466;11.176;2023-11-19T03:54:00;6.80;99.90
4699;DHT22;33708;49.466;11.176;2023-11-19T03:56:26;6.50;99.90
4699;DHT22;33708;49.466;11.176;2023-11-19T03:58:54;6.30;99.90
4699;DHT22;33708;49.466;11.176;2023-11-19T04:01:20;6.30;99.90
4699;DHT22;33708;49.466;11.176;2023-11-19T04:03:46;6.40;99.90
4699;DHT22;33708;49.466;11.176;2023-11-19T04:06:14;6.40;99.90
4699;DHT22;33708;49.466;11.176;2023-11-19T04:08:41;6.50;99.90
4699;DHT22;33708;49.466;11.176;2023-11-19T04:11:08;6.90;99.90
4699;DHT22;33708;49.466;11.176;2023-11-19T04:13:34;6.90;99.90
4699;DHT22;33708;49.466;11.176;2023-11-19T04:16:01;6.90;99.90
4699;DHT22;33708;49.466;11.176;2023-11-19T04:18:27;7.10;99.90
4699;DHT22;33708;49.466;11.176;2023-11-19T04:20:52;7.00;99.90
4699;DHT22;33708;49.466;11.176;2023-11-19T04:23:18;7.20;99.90
4699;DHT22;33708;49.466;11.176;2023-11-19T04:25:44;7.40;99.90
4699;DHT22;33708;49.466;11.176;2023-11-19T04:28:11;7.30;99.90
4699;DHT22;33708;49.466;11.176;2023-11-19T04:30:36;7.40;99.90
4699;DHT22;33708;49.466;11.176;2023-11-19T04:33:03;7.30;99.90
4699;DHT22;33708;49.466;11.176;2023-11-19T04:35:28;7.60;99.90
4699;DHT22;33708;49.466;11.176;2023-11-19T04:37:54;7.40;99.90
4699;DHT22;33708;49.466;11.176;2023-11-19T04:40:23;7.50;99.90
4699;DHT22;33708;49.466;11.176;2023-11-19T04:42:48;7.50;99.90
4699;DHT22;33708;49.466;11.176;2023-11-19T04:45:14;8.60;99.90
4699;DHT22;33708;49.466;11.176;2023-11-19T04:47:42;7.70;99.90
4699;DHT22;33708;49.466;11.176;2023-11-19T04:50:10;7.60;99.90
4699;DHT22;33708;49.466;11.176;2023-11-19T04:52:39;9.20;99.90
4699;DHT22;33708;49.466;11.176;2023-11-19T04:55:11;7.60;99.90
4699;DHT22;33708;49.466;11.176;2023-11-19T04:57:37;7.70;99.90
4699;DHT22;33708;49.466;11.176;2023-11-19T05:00:04;7.90;99.90
4699;DHT22;33708;49.466;11.176;2023-11-19T05:02:30;7.80;99.90
4699;DHT22;33708;49.466;11.176;2023-11-19T05:04:57;7.80;99.90
4699;DHT22;33708;49.466;11.176;2023-11-19T05:07:25;7.80;99.90
4699;DHT22;33708;49.466;11.176;2023-11-19T05:09:52;7.80;99.90
4699;DHT22;33708;49.466;11.176;2023-11-19T05:12:20;7.80;99.90
4699;DHT22;33708;49.466;11.176;2023-11-19T05:14:46;7.80;99.90
4699;DHT22;33708;49.466;11.176;2023-11-19T05:17:15;7.70;99.90
4699;DHT22;33708;49.466;11.176;2023-11-19T05:19:45;7.80;99.90
4699;DHT22;33708;49.466;11.176;2023-11-19T05:22:10;7.70;99.90
4699;DHT22;33708;49.466;11.176;2023-11-19T05:24:37;7.90;99.90
4699;DHT22;33708;49.466;11.176;2023-11-19T05:27:04;7.90;99.90
4699;DHT22;33708;49.466;11.176;2023-11-19T05:29:30;7.90;99.90
4699;DHT22;33708;49.466;11.176;2023-11-19T05:31:57;7.90;99.90
4699;DHT22;33708;49.466;11.176;2023-11-19T05:34:23;7.90;99.90
4699;DHT22;33708;49.466;11.176;2023-11-19T05:36:51;8.00;99.90
4699;DHT22;33708;49.466;11.176;2023-11-19T05:39:18;8.00;99.90
4699;DHT22;33708;49.466;11.176;2023-11-19T05:41:46;8.10;99.90
4699;DHT22;33708;49.466;11.176;2023-11-19T05:44:14;8.00;99.90
4699;DHT22;33708;49.466;11.176;2023-11-19T05:46:43;7.90;99.90
4699;DHT22;33708;49.466;11.176;2023-11-19T05:49:12;7.80;99.90
4699;DHT22;33708;49.466;11.176;2023-11-19T05:51:39;7.90;99.90
4699;DHT22;33708;49.466;11.176;2023-11-19T05:54:07;8.10;99.90
4699;DHT22;33708;49.466;11.176;2023-11-19T05:56:33;8.20;99.90
4699;DHT22;33708;49.466;11.176;2023-11-19T05:58:59;8.10;99.90
4699;DHT22;33708;49.466;11.176;2023-11-19T06:01:30;8.00;99.90
4699;DHT22;33708;49.466;11.176;2023-11-19T06:03:55;8.10;99.90
4699;DHT22;33708;49.466;11.176;2023-11-19T06:06:22;8.20;99.90
4699;DHT22;33708;49.466;11.176;2023-11-19T06:08:49;8.30;99.90
4699;DHT22;33708;49.466;11.176;2023-11-19T06:11:16;8.30;99.90
4699;DHT22;33708;49.466;11.176;2023-11-19T06:13:44;8.40;99.90
4699;DHT22;33708;49.466;11.176;2023-11-19T06:16:11;8.50;99.90
4699;DHT22;33708;49.466;11.176;2023-11-19T06:18:38;8.70;99.90
4699;DHT22;33708;49.466;11.176;2023-11-19T06:21:04;8.60;99.90
4699;DHT22;33708;49.466;11.176;2023-11-19T06:23:30;8.70;99.90
4699;DHT22;33708;49.466;11.176;2023-11-19T06:25:55;8.80;99.90
4699;DHT22;33708;49.466;11.176;2023-11-19T06:28:21;9.00;99.90
4699;DHT22;33708;49.466;11.176;2023-11-19T06:30:48;8.80;99.90
4699;DHT22;33708;49.466;11.176;2023-11-19T06:33:14;8.90;99.90
4699;DHT22;33708;49.466;11.176;2023-11-19T06:35:41;7.20;99.90
4699;DHT22;33708;49.466;11.176;2023-11-19T06:38:07;9.20;99.90
4699;DHT22;33708;49.466;11.176;2023-11-19T06:40:33;9.30;99.90
4699;DHT22;33708;49.466;11.176;2023-11-19T06:43:00;9.40;99.90
4699;DHT22;33708;49.466;11.176;2023-11-19T06:45:26;9.40;1.00
4699;DHT22;33708;49.466;11.176;2023-11-19T06:47:52;9.50;99.90
4699;DHT22;33708;49.466;11.176;2023-11-19T06:50:17;9.50;99.90
4699;DHT22;33708;49.466;11.176;2023-11-19T06:52:44;11.50;99.90
4699;DHT22;33708;49.466;11.176;2023-11-19T06:55:10;9.50;99.90
4699;DHT22;33708;49.466;11.176;2023-11-19T06:57:37;9.30;99.90
4699;DHT22;33708;49.466;11.176;2023-11-19T07:00:04;9.30;1.00
4699;DHT22;33708;49.466;11.176;2023-11-19T07:02:31;9.40;99.90
4699;DHT22;33708;49.466;11.176;2023-11-19T07:04:58;9.40;99.90
4699;DHT22;33708;49.466;11.176;2023-11-19T07:07:25;9.40;99.90
4699;DHT22;33708;49.466;11.176;2023-11-19T07:09:51;9.60;99.90
4699;DHT22;33708;49.466;11.176;2023-11-19T07:12:17;9.40;99.90
4699;DHT22;33708;49.466;11.176;2023-11-19T07:14:43;9.50;99.90
4699;DHT22;33708;49.466;11.176;2023-11-19T07:17:12;9.60;99.90
4699;DHT22;33708;49.466;11.176;2023-11-19T07:19:41;9.50;1.00
4699;DHT22;33708;49.466;11.176;2023-11-19T07:22:08;9.60;1.00
4699;DHT22;33708;49.466;11.176;2023-11-19T07:24:39;9.40;1.00
4699;DHT22;33708;49.466;11.176;2023-11-19T07:27:09;9.60;1.00
4699;DHT22;33708;49.466;11.176;2023-11-19T07:29:57;9.60;1.00
4699;DHT22;33708;49.466;11.176;2023-11-19T07:32:23;9.70;1.00
4699;DHT22;33708;49.466;11.176;2023-11-19T07:34:48;10.30;99.90
4699;DHT22;33708;49.466;11.176;2023-11-19T07:37:14;9.90;99.90
4699;DHT22;33708;49.466;11.176;2023-11-19T07:39:42;9.80;1.00
4699;DHT22;33708;49.466;11.176;2023-11-19T07:42:07;9.90;1.00
4699;DHT22;33708;49.466;11.176;2023-11-19T07:44:34;8.40;1.00
4699;DHT22;33708;49.466;11.176;2023-11-19T07:47:00;9.90;1.00
4699;DHT22;33708;49.466;11.176;2023-11-19T07:49:25;10.00;1.00
4699;DHT22;33708;49.466;11.176;2023-11-19T07:51:51;10.10;1.00
4699;DHT22;33708;49.466;11.176;2023-11-19T07:54:17;10.60;1.00
4699;DHT22;33708;49.466;11.176;2023-11-19T07:56:42;10.20;99.90
4699;DHT22;33708;49.466;11.176;2023-11-19T07:59:08;10.10;99.90
4699;DHT22;33708;49.466;11.176;2023-11-19T08:01:33;10.20;99.90
4699;DHT22;33708;49.466;11.176;2023-11-19T08:03:59;10.20;99.90
4699;DHT22;33708;49.466;11.176;2023-11-19T08:06:27;10.20;84.80
4699;DHT22;33708;49.466;11.176;2023-11-19T08:08:52;10.30;1.00
4699;DHT22;33708;49.466;11.176;2023-11-19T08:11:18;10.30;1.00
4699;DHT22;33708;49.466;11.176;2023-11-19T08:13:45;10.60;1.00
4699;DHT22;33708;49.466;11.176;2023-11-19T08:16:11;10.70;1.00
4699;DHT22;33708;49.466;11.176;2023-11-19T08:18:37;10.50;1.00
4699;DHT22;33708;49.466;11.176;2023-11-19T08:21:03;10.50;1.00
4699;DHT22;33708;49.466;11.176;2023-11-19T08:23:30;10.70;1.00
4699;DHT22;33708;49.466;11.176;2023-11-19T08:25:55;10.70;1.00
4699;DHT22;33708;49.466;11.176;2023-11-19T08:28:21;11.00;1.00
4699;DHT22;33708;49.466;11.176;2023-11-19T08:30:46;10.50;1.00
4699;DHT22;33708;49.466;11.176;2023-11-19T08:33:12;10.60;1.00
4699;DHT22;33708;49.466;11.176;2023-11-19T08:35:38;10.60;1.00
4699;DHT22;33708;49.466;11.176;2023-11-19T08:38:03;10.90;1.00
4699;DHT22;33708;49.466;11.176;2023-11-19T08:40:30;10.70;99.90
4699;DHT22;33708;49.466;11.176;2023-11-19T08:42:56;10.70;99.90
4699;DHT22;33708;49.466;11.176;2023-11-19T08:45:23;10.70;99.90
4699;DHT22;33708;49.466;11.176;2023-11-19T08:47:49;11.30;99.90
4699;DHT22;33708;49.466;11.176;2023-11-19T08:50:15;11.10;99.90
4699;DHT22;33708;49.466;11.176;2023-11-19T08:52:41;10.90;99.90
4699;DHT22;33708;49.466;11.176;2023-11-19T08:55:07;12.10;99.90
4699;DHT22;33708;49.466;11.176;2023-11-19T08:57:35;11.10;99.90
4699;DHT22;33708;49.466;11.176;2023-11-19T09:00:02;11.30;99.90
4699;DHT22;33708;49.466;11.176;2023-11-19T09:02:33;11.40;99.90
4699;DHT22;33708;49.466;11.176;2023-11-19T09:04:59;11.50;99.90
4699;DHT22;33708;49.466;11.176;2023-11-19T09:07:25;11.70;99.90
4699;DHT22;33708;49.466;11.176;2023-11-19T09:09:53;11.80;99.90
4699;DHT22;33708;49.466;11.176;2023-11-19T09:12:20;12.10;99.90
4699;DHT22;33708;49.466;11.176;2023-11-19T09:14:46;12.60;99.90
4699;DHT22;33708;49.466;11.176;2023-11-19T09:17:12;12.90;99.90
4699;DHT22;33708;49.466;11.176;2023-11-19T09:19:38;12.80;99.90
4699;DHT22;33708;49.466;11.176;2023-11-19T09:22:04;12.80;99.90
4699;DHT22;33708;49.466;11.176;2023-11-19T09:24:30;13.40;99.90
4699;DHT22;33708;49.466;11.176;2023-11-19T09:26:57;12.70;99.90
4699;DHT22;33708;49.466;11.176;2023-11-19T09:29:23;12.80;99.90
4699;DHT22;33708;49.466;11.176;2023-11-19T09:31:49;12.90;99.90
4699;DHT22;33708;49.466;11.176;2023-11-19T09:34:14;13.20;99.90
4699;DHT22;33708;49.466;11.176;2023-11-19T09:36:40;11.40;99.90
4699;DHT22;33708;49.466;11.176;2023-11-19T09:39:10;14.40;99.90
4699;DHT22;33708;49.466;11.176;2023-11-19T09:41:35;13.30;99.90
4699;DHT22;33708;49.466;11.176;2023-11-19T09:44:01;13.60;99.90
4699;DHT22;33708;49.466;11.176;2023-11-19T09:46:27;13.50;99.90
4699;DHT22;33708;49.466;11.176;2023-11-19T09:48:56;13.60;99.90
4699;DHT22;33708;49.466;11.176;2023-11-19T09:51:23;13.40;99.90
4699;DHT22;33708;49.466;11.176;2023-11-19T09:53:49;13.50;99.90
4699;DHT22;33708;49.466;11.176;2023-11-19T09:56:15;13.70;99.90
4699;DHT22;33708;49.466;11.176;2023-11-19T09:58:42;13.70;99.90
4699;DHT22;33708;49.466;11.176;2023-11-19T10:01:08;12.90;99.90
4699;DHT22;33708;49.466;11.176;2023-11-19T10:03:38;13.20;99.90
4699;DHT22;33708;49.466;11.176;2023-11-19T10:06:08;12.90;99.90
4699;DHT22;33708;49.466;11.176;2023-11-19T10:08:37;12.80;99.90
4699;DHT22;33708;49.466;11.176;2023-11-19T10:11:05;12.80;99.90
4699;DHT22;33708;49.466;11.176;2023-11-19T10:13:31;11.80;99.90
4699;DHT22;33708;49.466;11.176;2023-11-19T10:15:57;13.10;99.90
4699;DHT22;33708;49.466;11.176;2023-11-19T10:18:26;11.60;99.90
4699;DHT22;33708;49.466;11.176;2023-11-19T10:20:52;13.80;99.90
4699;DHT22;33708;49.466;11.176;2023-11-19T10:23:17;13.50;99.90
4699;DHT22;33708;49.466;11.176;2023-11-19T10:25:43;13.50;99.90
4699;DHT22;33708;49.466;11.176;2023-11-19T10:28:08;13.70;99.90
4699;DHT22;33708;49.466;11.176;2023-11-19T10:30:34;14.20;99.90
4699;DHT22;33708;49.466;11.176;2023-11-19T10:35:31;13.90;99.90
4699;DHT22;33708;49.466;11.176;2023-11-19T10:38:13;13.50;99.90
4699;DHT22;33708;49.466;11.176;2023-11-19T10:40:41;13.40;99.90
4699;DHT22;33708;49.466;11.176;2023-11-19T10:43:07;13.40;99.90
4699;DHT22;33708;49.466;11.176;2023-11-19T10:45:39;13.20;99.90
4699;DHT22;33708;49.466;11.176;2023-11-19T10:48:07;13.20;99.90
4699;DHT22;33708;49.466;11.176;2023-11-19T10:50:36;13.20;99.90
4699;DHT22;33708;49.466;11.176;2023-11-19T10:53:03;13.30;99.90
4699;DHT22;33708;49.466;11.176;2023-11-19T10:55:31;14.10;99.90
4699;DHT22;33708;49.466;11.176;2023-11-19T10:58:01;13.20;99.90
4699;DHT22;33708;49.466;11.176;2023-11-19T11:00:30;14.30;99.90
4699;DHT22;33708;49.466;11.176;2023-11-19T11:03:02;14.10;99.90
4699;DHT22;33708;49.466;11.176;2023-11-19T11:05:32;14.20;99.90
4699;DHT22;33708;49.466;11.176;2023-11-19T11:08:01;14.30;99.90
4699;DHT22;33708;49.466;11.176;2023-11-19T11:10:28;13.80;99.90
4699;DHT22;33708;49.466;11.176;2023-11-19T11:12:59;14.80;99.90
4699;DHT22;33708;49.466;11.176;2023-11-19T11:15:29;15.10;99.90
4699;DHT22;33708;49.466;11.176;2023-11-19T11:18:00;13.30;99.90
4699;DHT22;33708;49.466;11.176;2023-11-19T11:20:30;14.50;99.90
4699;DHT22;33708;49.466;11.176;2023-11-19T11:34:08;14.30;99.90
4699;DHT22;33708;49.466;11.176;2023-11-19T11:39:16;14.40;99.90
4699;DHT22;33708;49.466;11.176;2023-11-19T11:41:41;13.90;99.90
4699;DHT22;33708;49.466;11.176;2023-11-19T11:44:07;14.00;99.90
4699;DHT22;33708;49.466;11.176;2023-11-19T11:49:03;14.20;99.90
4699;DHT22;33708;49.466;11.176;2023-11-19T11:54:11;13.90;99.90
4699;DHT22;33708;49.466;11.176;2023-11-19T11:56:37;13.90;99.90
4699;DHT22;33708;49.466;11.176;2023-11-19T11:59:18;13.90;99.90
4699;DHT22;33708;49.466;11.176;2023-11-19T12:02:00;13.80;99.90
4699;DHT22;33708;49.466;11.176;2023-11-19T12:04:28;13.70;99.90
4699;DHT22;33708;49.466;11.176;2023-11-19T12:07:11;13.60;99.90
4699;DHT22;33708;49.466;11.176;2023-11-19T12:09:40;13.70;99.90
4699;DHT22;33708;49.466;11.176;2023-11-19T12:12:19;13.60;99.90
4699;DHT22;33708;49.466;11.176;2023-11-19T12:15:08;13.50;99.90
4699;DHT22;33708;49.466;11.176;2023-11-19T12:17:42;13.50;99.90
4699;DHT22;33708;49.466;11.176;2023-11-19T12:20:11;13.50;99.90
4699;DHT22;33708;49.466;11.176;2023-11-19T12:22:38;13.50;99.90
4699;DHT22;33708;49.466;11.176;2023-11-19T12:25:05;13.30;99.90
4699;DHT22;33708;49.466;11.176;2023-11-19T12:27:32;13.30;99.90
4699;DHT22;33708;49.466;11.176;2023-11-19T12:29:59;13.30;99.90
4699;DHT22;33708;49.466;11.176;2023-11-19T12:32:25;13.30;99.90
4699;DHT22;33708;49.466;11.176;2023-11-19T12:34:51;13.20;99.90
4699;DHT22;33708;49.466;11.176;2023-11-19T12:37:16;13.30;99.90
4699;DHT22;33708;49.466;11.176;2023-11-19T12:39:42;13.40;99.90
4699;DHT22;33708;49.466;11.176;2023-11-19T12:42:08;13.60;99.90
4699;DHT22;33708;49.466;11.176;2023-11-19T12:44:34;13.90;99.90
4699;DHT22;33708;49.466;11.176;2023-11-19T12:47:04;14.00;99.90
4699;DHT22;33708;49.466;11.176;2023-11-19T12:49:35;14.10;99.90
4699;DHT22;33708;49.466;11.176;2023-11-19T12:52:01;14.20;99.90
4699;DHT22;33708;49.466;11.176;2023-11-19T12:54:36;14.30;99.90
4699;DHT22;33708;49.466;11.176;2023-11-19T12:57:04;14.70;99.90
4699;DHT22;33708;49.466;11.176;2023-11-19T12:59:31;14.30;99.90
4699;DHT22;33708;49.466;11.176;2023-11-19T13:01:57;14.10;99.90
4699;DHT22;33708;49.466;11.176;2023-11-19T13:04:27;14.00;99.90
4699;DHT22;33708;49.466;11.176;2023-11-19T13:06:53;14.20;99.90
4699;DHT22;33708;49.466;11.176;2023-11-19T13:11:50;14.40;99.90
4699;DHT22;33708;49.466;11.176;2023-11-19T13:14:16;14.60;99.90
4699;DHT22;33708;49.466;11.176;2023-11-19T13:16:42;14.70;99.90
4699;DHT22;33708;49.466;11.176;2023-11-19T13:19:08;14.90;99.90
4699;DHT22;33708;49.466;11.176;2023-11-19T13:21:36;14.40;99.90
4699;DHT22;33708;49.466;11.176;2023-11-19T13:24:03;14.50;99.90
4699;DHT22;33708;49.466;11.176;2023-11-19T13:26:29;14.40;99.90
4699;DHT22;33708;49.466;11.176;2023-11-19T13:28:54;14.30;99.90
4699;DHT22;33708;49.466;11.176;2023-11-19T13:31:20;14.40;99.90
4699;DHT22;33708;49.466;11.176;2023-11-19T13:33:45;14.40;99.90
4699;DHT22;33708;49.466;11.176;2023-11-19T13:36:11;14.40;99.90
4699;DHT22;33708;49.466;11.176;2023-11-19T13:38:37;14.40;99.90
4699;DHT22;33708;49.466;11.176;2023-11-19T13:41:03;14.60;99.90
4699;DHT22;33708;49.466;11.176;2023-11-19T13:43:33;14.70;99.90
4699;DHT22;33708;49.466;11.176;2023-11-19T13:45:58;14.50;99.90
4699;DHT22;33708;49.466;11.176;2023-11-19T13:48:24;14.30;99.90
4699;DHT22;33708;49.466;11.176;2023-11-19T13:50:51;14.70;99.90
4699;DHT22;33708;49.466;11.176;2023-11-19T13:53:17;14.70;99.90
4699;DHT22;33708;49.466;11.176;2023-11-19T13:55:43;14.80;99.90
4699;DHT22;33708;49.466;11.176;2023-11-19T13:58:09;15.00;99.90
4699;DHT22;33708;49.466;11.176;2023-11-19T14:00:35;15.10;99.90
4699;DHT22;33708;49.466;11.176;2023-11-19T14:03:00;15.20;99.90
4699;DHT22;33708;49.466;11.176;2023-11-19T14:05:26;15.00;99.90
4699;DHT22;33708;49.466;11.176;2023-11-19T14:07:52;14.90;99.90
4699;DHT22;33708;49.466;11.176;2023-11-19T14:10:19;14.70;99.90
4699;DHT22;33708;49.466;11.176;2023-11-19T14:12:45;14.40;99.90
4699;DHT22;33708;49.466;11.176;2023-11-19T14:15:11;14.50;99.90
4699;DHT22;33708;49.466;11.176;2023-11-19T14:17:40;14.50;99.90
4699;DHT22;33708;49.466;11.176;2023-11-19T14:20:06;14.50;99.90
4699;DHT22;33708;49.466;11.176;2023-11-19T14:22:41;14.70;99.90
4699;DHT22;33708;49.466;11.176;2023-11-19T14:25:08;14.60;99.90
4699;DHT22;33708;49.466;11.176;2023-11-19T14:27:42;13.80;99.90
4699;DHT22;33708;49.466;11.176;2023-11-19T14:30:13;13.90;99.90
4699;DHT22;33708;49.466;11.176;2023-11-19T14:32:40;13.90;99.90
4699;DHT22;33708;49.466;11.176;2023-11-19T14:35:06;13.80;99.90
4699;DHT22;33708;49.466;11.176;2023-11-19T14:37:32;13.70;99.90
4699;DHT22;33708;49.466;11.176;2023-11-19T14:39:58;13.60;99.90
4699;DHT22;33708;49.466;11.176;2023-11-19T14:42:24;13.40;99.90
4699;DHT22;33708;49.466;11.176;2023-11-19T14:44:53;13.30;99.90
4699;DHT22;33708;49.466;11.176;2023-11-19T14:47:22;13.30;99.90
4699;DHT22;33708;49.466;11.176;2023-11-19T14:49:48;13.20;99.90
4699;DHT22;33708;49.466;11.176;2023-11-19T14:52:14;13.00;99.90
4699;DHT22;33708;49.466;11.176;2023-11-19T14:54:40;13.00;99.90
4699;DHT22;33708;49.466;11.176;2023-11-19T14:57:06;13.10;99.90
4699;DHT22;33708;49.466;11.176;2023-11-19T14:59:36;13.20;99.90
4699;DHT22;33708;49.466;11.176;2023-11-19T15:02:02;13.50;99.90
4699;DHT22;33708;49.466;11.176;2023-11-19T15:04:28;13.70;99.90
4699;DHT22;33708;49.466;11.176;2023-11-19T15:06:56;13.80;99.90
4699;DHT22;33708;49.466;11.176;2023-11-19T15:09:22;13.80;99.90
4699;DHT22;33708;49.466;11.176;2023-11-19T15:11:48;13.70;99.90
4699;DHT22;33708;49.466;11.176;2023-11-19T15:14:14;13.60;99.90
4699;DHT22;33708;49.466;11.176;2023-11-19T15:16:42;14.00;99.90
4699;DHT22;33708;49.466;11.176;2023-11-19T15:19:07;13.60;99.90
4699;DHT22;33708;49.466;11.176;2023-11-19T15:21:34;13.50;99.90
4699;DHT22;33708;49.466;11.176;2023-11-19T15:24:00;13.40;99.90
4699;DHT22;33708;49.466;11.176;2023-11-19T15:26:26;13.10;99.90
4699;DHT22;33708;49.466;11.176;2023-11-19T15:28:52;13.20;99.90
4699;DHT22;33708;49.466;11.176;2023-11-19T15:31:22;13.10;99.90
4699;DHT22;33708;49.466;11.176;2023-11-19T15:33:47;13.00;99.90
4699;DHT22;33708;49.466;11.176;2023-11-19T15:36:13;13.00;99.90
4699;DHT22;33708;49.466;11.176;2023-11-19T15:38:39;13.00;99.90
4699;DHT22;33708;49.466;11.176;2023-11-19T15:41:05;13.10;99.90
4699;DHT22;33708;49.466;11.176;2023-11-19T15:43:33;13.10;99.90
4699;DHT22;33708;49.466;11.176;2023-11-19T15:45:59;13.00;99.90
4699;DHT22;33708;49.466;11.176;2023-11-19T15:48:25;13.00;99.90
4699;DHT22;33708;49.466;11.176;2023-11-19T15:50:52;13.00;99.90
4699;DHT22;33708;49.466;11.176;2023-11-19T15:53:18;13.00;99.90
4699;DHT22;33708;49.466;11.176;2023-11-19T15:55:44;12.90;99.90
4699;DHT22;33708;49.466;11.176;2023-11-19T15:58:10;12.70;99.90
4699;DHT22;33708;49.466;11.176;2023-11-19T16:00:36;12.60;99.90
4699;DHT22;33708;49.466;11.176;2023-11-19T16:03:01;12.60;99.90